sensor_id;sensor_type;location;lat;lon;timestamp;P1;durP1;ratioP1;P2;durP2;ratioP2
1164;SDS011;571;50.930;6.926;2023-07-22T02:47:08;8.37;;;7.57;;
1164;SDS011;571;50.930;6.926;2023-07-22T02:49:47;11.30;;;7.10;;
1164;SDS011;571;50.930;6.926;2023-07-22T02:52:31;10.60;;;7.27;;
1164;SDS011;571;50.930;6.926;2023-07-22T02:55:18;8.97;;;7.93;;
1164;SDS011;571;50.930;6.926;2023-07-22T09:42:12;5.70;;;5.20;;
1164;SDS011;571;50.930;6.926;2023-07-22T10:47:22;5.17;;;2.73;;
1164;SDS011;571;50.930;6.926;2023-07-22T11:41:20;2.93;;;2.63;;
1164;SDS011;571;50.930;6.926;2023-07-22T12:18:11;3.20;;;2.90;;
1164;SDS011;571;50.930;6.926;2023-07-22T12:20:56;2.43;;;2.23;;
1164;SDS011;571;50.930;6.926;2023-07-22T12:40:23;3.00;;;1.90;;
1164;SDS011;571;50.930;6.926;2023-07-22T12:43:16;2.33;;;2.10;;
1164;SDS011;571;50.930;6.926;2023-07-22T12:46:22;2.80;;;2.37;;
1164;SDS011;571;50.930;6.926;2023-07-22T12:49:58;1.90;;;1.80;;
1164;SDS011;571;50.930;6.926;2023-07-22T12:56:13;2.53;;;2.30;;
1164;SDS011;571;50.930;6.926;2023-07-22T13:02:30;2.60;;;2.27;;
1164;SDS011;571;50.930;6.926;2023-07-22T13:05:58;2.30;;;2.10;;
1164;SDS011;571;50.930;6.926;2023-07-22T13:09:11;4.50;;;2.07;;
1164;SDS011;571;50.930;6.926;2023-07-22T13:12:17;2.40;;;2.20;;
1164;SDS011;571;50.930;6.926;2023-07-22T13:15:23;2.40;;;2.20;;
1164;SDS011;571;50.930;6.926;2023-07-22T13:18:30;2.57;;;2.37;;
1164;SDS011;571;50.930;6.926;2023-07-22T13:24:34;2.50;;;2.30;;
1164;SDS011;571;50.930;6.926;2023-07-22T13:27:36;2.97;;;2.47;;
1164;SDS011;571;50.930;6.926;2023-07-22T13:30:38;3.50;;;2.87;;
1164;SDS011;571;50.930;6.926;2023-07-22T13:36:23;2.93;;;2.63;;
1164;SDS011;571;50.930;6.926;2023-07-22T13:39:30;3.27;;;3.00;;
1164;SDS011;571;50.930;6.926;2023-07-22T13:42:55;2.73;;;2.37;;
1164;SDS011;571;50.930;6.926;2023-07-22T13:56:00;2.83;;;2.63;;
1164;SDS011;571;50.930;6.926;2023-07-22T14:25:18;3.10;;;2.80;;
1164;SDS011;571;50.930;6.926;2023-07-22T14:37:48;3.27;;;3.03;;
1164;SDS011;571;50.930;6.926;2023-07-22T14:40:16;3.53;;;2.73;;
1164;SDS011;571;50.930;6.926;2023-07-22T14:42:54;3.27;;;2.97;;
1164;SDS011;571;50.930;6.926;2023-07-22T14:48:27;2.90;;;2.70;;
1164;SDS011;571;50.930;6.926;2023-07-22T14:50:59;3.23;;;2.83;;
1164;SDS011;571;50.930;6.926;2023-07-22T14:53:33;2.90;;;2.67;;
1164;SDS011;571;50.930;6.926;2023-07-22T14:56:15;2.77;;;2.57;;
1164;SDS011;571;50.930;6.926;2023-07-22T14:58:44;3.47;;;3.20;;
1164;SDS011;571;50.930;6.926;2023-07-22T15:01:32;3.30;;;3.00;;
1164;SDS011;571;50.930;6.926;2023-07-22T15:04:11;4.50;;;3.10;;
1164;SDS011;571;50.930;6.926;2023-07-22T15:06:48;3.73;;;3.30;;
1164;SDS011;571;50.930;6.926;2023-07-22T15:09:27;4.80;;;3.00;;
1164;SDS011;571;50.930;6.926;2023-07-22T15:11:55;2.80;;;2.57;;
1164;SDS011;571;50.930;6.926;2023-07-22T15:14:35;4.03;;;3.67;;
1164;SDS011;571;50.930;6.926;2023-07-22T15:17:05;3.50;;;3.17;;
1164;SDS011;571;50.930;6.926;2023-07-22T15:19:40;3.77;;;3.47;;
1164;SDS011;571;50.930;6.926;2023-07-22T15:22:12;5.33;;;3.70;;
1164;SDS011;571;50.930;6.926;2023-07-22T15:24:41;4.50;;;4.10;;
1164;SDS011;571;50.930;6.926;2023-07-22T15:27:10;3.27;;;2.97;;
1164;SDS011;571;50.930;6.926;2023-07-22T15:29:42;3.87;;;3.57;;
1164;SDS011;571;50.930;6.926;2023-07-22T15:32:08;3.27;;;2.97;;
1164;SDS011;571;50.930;6.926;2023-07-22T15:34:39;3.80;;;3.07;;
1164;SDS011;571;50.930;6.926;2023-07-22T15:37:06;4.40;;;4.00;;
1164;SDS011;571;50.930;6.926;2023-07-22T15:39:37;3.73;;;3.20;;
1164;SDS011;571;50.930;6.926;2023-07-22T15:42:04;3.53;;;3.03;;
1164;SDS011;571;50.930;6.926;2023-07-22T15:44:40;4.43;;;3.50;;
1164;SDS011;571;50.930;6.926;2023-07-22T15:47:11;3.73;;;3.30;;
1164;SDS011;571;50.930;6.926;2023-07-22T15:49:42;4.00;;;3.30;;
1164;SDS011;571;50.930;6.926;2023-07-22T15:52:14;4.53;;;3.03;;
1164;SDS011;571;50.930;6.926;2023-07-22T15:54:44;5.60;;;3.00;;
1164;SDS011;571;50.930;6.926;2023-07-22T15:57:26;8.00;;;2.90;;
1164;SDS011;571;50.930;6.926;2023-07-22T15:59:58;3.40;;;2.60;;
1164;SDS011;571;50.930;6.926;2023-07-22T16:02:31;3.87;;;2.77;;
1164;SDS011;571;50.930;6.926;2023-07-22T16:05:00;4.20;;;2.87;;
1164;SDS011;571;50.930;6.926;2023-07-22T16:07:30;7.03;;;3.23;;
1164;SDS011;571;50.930;6.926;2023-07-22T16:10:03;3.73;;;3.30;;
1164;SDS011;571;50.930;6.926;2023-07-22T16:12:37;3.97;;;3.40;;
1164;SDS011;571;50.930;6.926;2023-07-22T16:15:14;7.33;;;3.13;;
1164;SDS011;571;50.930;6.926;2023-07-22T16:17:41;7.00;;;2.90;;
1164;SDS011;571;50.930;6.926;2023-07-22T16:20:13;2.87;;;2.30;;
1164;SDS011;571;50.930;6.926;2023-07-22T16:22:40;4.63;;;3.27;;
1164;SDS011;571;50.930;6.926;2023-07-22T16:25:16;4.27;;;3.00;;
1164;SDS011;571;50.930;6.926;2023-07-22T16:27:43;7.00;;;3.17;;
1164;SDS011;571;50.930;6.926;2023-07-22T16:30:10;4.23;;;3.20;;
1164;SDS011;571;50.930;6.926;2023-07-22T16:32:37;4.40;;;3.80;;
1164;SDS011;571;50.930;6.926;2023-07-22T16:35:08;4.17;;;3.77;;
1164;SDS011;571;50.930;6.926;2023-07-22T16:40:25;6.33;;;4.00;;
1164;SDS011;571;50.930;6.926;2023-07-22T16:42:58;4.60;;;3.30;;
1164;SDS011;571;50.930;6.926;2023-07-22T16:45:34;4.17;;;2.77;;
1164;SDS011;571;50.930;6.926;2023-07-22T16:48:03;3.90;;;2.93;;
1164;SDS011;571;50.930;6.926;2023-07-22T16:50:30;6.30;;;3.30;;
1164;SDS011;571;50.930;6.926;2023-07-22T16:52:59;5.03;;;4.07;;
1164;SDS011;571;50.930;6.926;2023-07-22T16:55:28;3.80;;;3.40;;
1164;SDS011;571;50.930;6.926;2023-07-22T16:57:57;7.53;;;2.87;;
1164;SDS011;571;50.930;6.926;2023-07-22T17:00:24;3.33;;;3.00;;
1164;SDS011;571;50.930;6.926;2023-07-22T17:02:53;2.90;;;2.60;;
1164;SDS011;571;50.930;6.926;2023-07-22T17:05:22;5.33;;;3.03;;
1164;SDS011;571;50.930;6.926;2023-07-22T17:07:52;4.47;;;2.80;;
1164;SDS011;571;50.930;6.926;2023-07-22T17:10:21;4.27;;;2.50;;
1164;SDS011;571;50.930;6.926;2023-07-22T17:12:50;4.10;;;2.40;;
1164;SDS011;571;50.930;6.926;2023-07-22T17:15:20;2.90;;;2.60;;
1164;SDS011;571;50.930;6.926;2023-07-22T17:17:48;4.20;;;3.40;;
1164;SDS011;571;50.930;6.926;2023-07-22T17:21:33;4.80;;;3.10;;
1164;SDS011;571;50.930;6.926;2023-07-22T17:23:35;3.97;;;2.40;;
1164;SDS011;571;50.930;6.926;2023-07-22T17:26:20;3.47;;;3.03;;
1164;SDS011;571;50.930;6.926;2023-07-22T17:32:09;6.80;;;3.27;;
1164;SDS011;571;50.930;6.926;2023-07-22T17:35:21;4.10;;;2.73;;
1164;SDS011;571;50.930;6.926;2023-07-22T17:38:01;3.77;;;3.43;;
1164;SDS011;571;50.930;6.926;2023-07-22T17:40:46;3.47;;;3.10;;
1164;SDS011;571;50.930;6.926;2023-07-22T17:47:18;4.67;;;3.10;;
1164;SDS011;571;50.930;6.926;2023-07-22T17:50:10;3.40;;;3.10;;
1164;SDS011;571;50.930;6.926;2023-07-22T17:52:43;6.30;;;4.00;;
1164;SDS011;571;50.930;6.926;2023-07-22T17:58:29;4.47;;;3.13;;
1164;SDS011;571;50.930;6.926;2023-07-22T18:01:32;5.10;;;3.40;;
1164;SDS011;571;50.930;6.926;2023-07-22T18:04:57;3.90;;;3.00;;
1164;SDS011;571;50.930;6.926;2023-07-22T18:08:04;3.10;;;2.80;;
1164;SDS011;571;50.930;6.926;2023-07-22T18:10:53;3.77;;;3.37;;
1164;SDS011;571;50.930;6.926;2023-07-22T18:44:28;8.00;;;2.50;;
1164;SDS011;571;50.930;6.926;2023-07-22T18:50:44;3.27;;;2.97;;
